sensor_id;sensor_type;location;lat;lon;timestamp;P1;durP1;ratioP1;P2;durP2;ratioP2
63120;SDS011;54478;48.684;20.114;2023-04-15T00:01:34;3.70;;;2.40;;
63120;SDS011;54478;48.684;20.114;2023-04-15T00:04:04;4.45;;;2.55;;
63120;SDS011;54478;48.684;20.114;2023-04-15T00:06:32;6.22;;;2.83;;
63120;SDS011;54478;48.684;20.114;2023-04-15T00:09:00;5.95;;;3.10;;
63120;SDS011;54478;48.684;20.114;2023-04-15T00:11:28;5.68;;;3.45;;
63120;SDS011;54478;48.684;20.114;2023-04-15T00:13:57;6.10;;;3.80;;
63120;SDS011;54478;48.684;20.114;2023-04-15T00:16:25;7.55;;;4.35;;
63120;SDS011;54478;48.684;20.114;2023-04-15T00:18:53;7.18;;;4.82;;
63120;SDS011;54478;48.684;20.114;2023-04-15T00:21:21;10.82;;;4.63;;
63120;SDS011;54478;48.684;20.114;2023-04-15T00:23:49;8.20;;;4.15;;
63120;SDS011;54478;48.684;20.114;2023-04-15T00:26:20;8.25;;;4.72;;
63120;SDS011;54478;48.684;20.114;2023-04-15T00:28:49;7.53;;;4.60;;
63120;SDS011;54478;48.684;20.114;2023-04-15T00:31:17;9.82;;;5.00;;
63120;SDS011;54478;48.684;20.114;2023-04-15T00:33:45;11.68;;;5.15;;
63120;SDS011;54478;48.684;20.114;2023-04-15T00:36:13;9.75;;;4.70;;
63120;SDS011;54478;48.684;20.114;2023-04-15T00:38:41;7.40;;;4.68;;
63120;SDS011;54478;48.684;20.114;2023-04-15T00:41:09;6.78;;;4.15;;
63120;SDS011;54478;48.684;20.114;2023-04-15T00:43:38;7.63;;;5.30;;
63120;SDS011;54478;48.684;20.114;2023-04-15T00:46:06;10.95;;;5.75;;
63120;SDS011;54478;48.684;20.114;2023-04-15T00:48:31;9.13;;;5.35;;
63120;SDS011;54478;48.684;20.114;2023-04-15T00:51:00;9.20;;;5.32;;
63120;SDS011;54478;48.684;20.114;2023-04-15T00:53:28;10.35;;;5.53;;
63120;SDS011;54478;48.684;20.114;2023-04-15T00:55:56;10.05;;;5.63;;
63120;SDS011;54478;48.684;20.114;2023-04-15T00:58:25;9.45;;;5.30;;
63120;SDS011;54478;48.684;20.114;2023-04-15T01:00:54;8.43;;;4.95;;
63120;SDS011;54478;48.684;20.114;2023-04-15T01:03:23;8.27;;;4.43;;
63120;SDS011;54478;48.684;20.114;2023-04-15T01:05:51;9.10;;;5.32;;
63120;SDS011;54478;48.684;20.114;2023-04-15T01:08:26;8.60;;;4.57;;
63120;SDS011;54478;48.684;20.114;2023-04-15T01:10:55;8.73;;;5.15;;
63120;SDS011;54478;48.684;20.114;2023-04-15T01:13:24;6.22;;;4.30;;
63120;SDS011;54478;48.684;20.114;2023-04-15T01:15:52;8.75;;;5.05;;
63120;SDS011;54478;48.684;20.114;2023-04-15T01:18:20;9.00;;;5.03;;
63120;SDS011;54478;48.684;20.114;2023-04-15T01:20:49;9.98;;;5.75;;
63120;SDS011;54478;48.684;20.114;2023-04-15T01:23:17;12.65;;;4.78;;
63120;SDS011;54478;48.684;20.114;2023-04-15T01:25:45;10.80;;;5.30;;
63120;SDS011;54478;48.684;20.114;2023-04-15T01:28:14;8.63;;;5.10;;
63120;SDS011;54478;48.684;20.114;2023-04-15T01:30:43;7.75;;;4.78;;
63120;SDS011;54478;48.684;20.114;2023-04-15T01:33:11;8.13;;;4.80;;
63120;SDS011;54478;48.684;20.114;2023-04-15T01:35:40;11.55;;;5.20;;
63120;SDS011;54478;48.684;20.114;2023-04-15T01:38:10;8.10;;;5.18;;
63120;SDS011;54478;48.684;20.114;2023-04-15T01:40:38;7.35;;;4.30;;
63120;SDS011;54478;48.684;20.114;2023-04-15T01:43:07;9.27;;;4.95;;
63120;SDS011;54478;48.684;20.114;2023-04-15T01:45:36;8.23;;;4.90;;
63120;SDS011;54478;48.684;20.114;2023-04-15T01:48:01;7.85;;;5.00;;
63120;SDS011;54478;48.684;20.114;2023-04-15T01:50:29;8.10;;;5.30;;
63120;SDS011;54478;48.684;20.114;2023-04-15T01:52:58;9.88;;;5.78;;
63120;SDS011;54478;48.684;20.114;2023-04-15T01:55:26;7.65;;;5.35;;
63120;SDS011;54478;48.684;20.114;2023-04-15T01:57:54;7.25;;;4.63;;
63120;SDS011;54478;48.684;20.114;2023-04-15T02:00:22;8.40;;;5.30;;
63120;SDS011;54478;48.684;20.114;2023-04-15T02:02:51;8.95;;;5.50;;
63120;SDS011;54478;48.684;20.114;2023-04-15T02:05:19;8.77;;;5.72;;
63120;SDS011;54478;48.684;20.114;2023-04-15T02:07:48;9.13;;;5.93;;
63120;SDS011;54478;48.684;20.114;2023-04-15T02:10:16;10.20;;;5.40;;
63120;SDS011;54478;48.684;20.114;2023-04-15T02:12:44;11.82;;;5.32;;
63120;SDS011;54478;48.684;20.114;2023-04-15T02:15:12;9.68;;;5.95;;
63120;SDS011;54478;48.684;20.114;2023-04-15T02:17:41;9.07;;;4.88;;
63120;SDS011;54478;48.684;20.114;2023-04-15T02:20:12;15.57;;;6.03;;
63120;SDS011;54478;48.684;20.114;2023-04-15T02:22:42;7.18;;;4.88;;
63120;SDS011;54478;48.684;20.114;2023-04-15T02:25:10;9.52;;;5.80;;
63120;SDS011;54478;48.684;20.114;2023-04-15T02:27:38;11.80;;;6.10;;
63120;SDS011;54478;48.684;20.114;2023-04-15T02:30:07;13.23;;;7.47;;
63120;SDS011;54478;48.684;20.114;2023-04-15T02:32:35;10.65;;;6.32;;
63120;SDS011;54478;48.684;20.114;2023-04-15T02:35:05;10.65;;;5.63;;
63120;SDS011;54478;48.684;20.114;2023-04-15T02:37:35;11.10;;;6.18;;
63120;SDS011;54478;48.684;20.114;2023-04-15T02:40:08;12.80;;;7.00;;
63120;SDS011;54478;48.684;20.114;2023-04-15T02:42:34;11.00;;;6.40;;
63120;SDS011;54478;48.684;20.114;2023-04-15T02:45:03;12.35;;;6.85;;
63120;SDS011;54478;48.684;20.114;2023-04-15T02:47:28;10.68;;;6.05;;
63120;SDS011;54478;48.684;20.114;2023-04-15T02:49:56;15.43;;;6.30;;
63120;SDS011;54478;48.684;20.114;2023-04-15T02:52:27;8.63;;;5.35;;
63120;SDS011;54478;48.684;20.114;2023-04-15T02:54:55;11.40;;;6.13;;
63120;SDS011;54478;48.684;20.114;2023-04-15T02:57:27;7.40;;;5.25;;
63120;SDS011;54478;48.684;20.114;2023-04-15T02:59:56;10.52;;;6.15;;
63120;SDS011;54478;48.684;20.114;2023-04-15T03:02:24;7.68;;;4.70;;
63120;SDS011;54478;48.684;20.114;2023-04-15T03:04:53;10.35;;;5.05;;
63120;SDS011;54478;48.684;20.114;2023-04-15T03:07:21;9.63;;;6.00;;
63120;SDS011;54478;48.684;20.114;2023-04-15T03:09:50;9.77;;;6.45;;
63120;SDS011;54478;48.684;20.114;2023-04-15T03:12:18;11.35;;;5.97;;
63120;SDS011;54478;48.684;20.114;2023-04-15T03:14:46;10.13;;;5.63;;
63120;SDS011;54478;48.684;20.114;2023-04-15T03:17:14;12.60;;;7.10;;
63120;SDS011;54478;48.684;20.114;2023-04-15T03:19:42;10.50;;;6.32;;
63120;SDS011;54478;48.684;20.114;2023-04-15T03:22:11;11.45;;;6.70;;
63120;SDS011;54478;48.684;20.114;2023-04-15T03:24:39;12.57;;;7.50;;
63120;SDS011;54478;48.684;20.114;2023-04-15T03:27:07;14.00;;;7.72;;
63120;SDS011;54478;48.684;20.114;2023-04-15T03:29:35;13.02;;;7.40;;
63120;SDS011;54478;48.684;20.114;2023-04-15T03:32:03;10.07;;;6.32;;
63120;SDS011;54478;48.684;20.114;2023-04-15T03:34:31;12.35;;;6.50;;
63120;SDS011;54478;48.684;20.114;2023-04-15T03:36:59;13.20;;;5.85;;
63120;SDS011;54478;48.684;20.114;2023-04-15T03:39:28;10.77;;;6.38;;
63120;SDS011;54478;48.684;20.114;2023-04-15T03:41:56;13.40;;;6.18;;
63120;SDS011;54478;48.684;20.114;2023-04-15T03:44:27;12.05;;;6.00;;
63120;SDS011;54478;48.684;20.114;2023-04-15T03:46:55;8.75;;;5.13;;
63120;SDS011;54478;48.684;20.114;2023-04-15T03:49:23;10.50;;;5.63;;
63120;SDS011;54478;48.684;20.114;2023-04-15T03:51:51;10.88;;;5.20;;
63120;SDS011;54478;48.684;20.114;2023-04-15T03:54:19;10.50;;;6.38;;
63120;SDS011;54478;48.684;20.114;2023-04-15T03:56:47;12.60;;;6.95;;
63120;SDS011;54478;48.684;20.114;2023-04-15T03:59:15;10.82;;;6.25;;
63120;SDS011;54478;48.684;20.114;2023-04-15T04:01:44;10.10;;;6.05;;
63120;SDS011;54478;48.684;20.114;2023-04-15T04:04:12;12.32;;;7.15;;
63120;SDS011;54478;48.684;20.114;2023-04-15T04:06:40;11.25;;;6.18;;
63120;SDS011;54478;48.684;20.114;2023-04-15T04:09:08;9.75;;;5.18;;
63120;SDS011;54478;48.684;20.114;2023-04-15T04:11:36;11.85;;;6.05;;
63120;SDS011;54478;48.684;20.114;2023-04-15T04:14:04;10.23;;;6.15;;
63120;SDS011;54478;48.684;20.114;2023-04-15T04:16:33;9.82;;;5.97;;
63120;SDS011;54478;48.684;20.114;2023-04-15T04:19:01;10.98;;;5.72;;
63120;SDS011;54478;48.684;20.114;2023-04-15T04:21:29;10.38;;;5.93;;
63120;SDS011;54478;48.684;20.114;2023-04-15T04:23:57;8.93;;;5.85;;
63120;SDS011;54478;48.684;20.114;2023-04-15T04:26:26;12.55;;;6.47;;
63120;SDS011;54478;48.684;20.114;2023-04-15T04:28:54;10.60;;;6.43;;
63120;SDS011;54478;48.684;20.114;2023-04-15T04:31:22;12.57;;;6.72;;
63120;SDS011;54478;48.684;20.114;2023-04-15T04:33:50;9.88;;;5.68;;
63120;SDS011;54478;48.684;20.114;2023-04-15T04:36:18;12.75;;;7.10;;
63120;SDS011;54478;48.684;20.114;2023-04-15T04:38:46;11.50;;;7.05;;
63120;SDS011;54478;48.684;20.114;2023-04-15T04:41:14;11.43;;;6.82;;
63120;SDS011;54478;48.684;20.114;2023-04-15T04:43:43;11.95;;;6.93;;
63120;SDS011;54478;48.684;20.114;2023-04-15T04:46:11;11.70;;;6.68;;
63120;SDS011;54478;48.684;20.114;2023-04-15T04:48:36;11.88;;;6.28;;
63120;SDS011;54478;48.684;20.114;2023-04-15T04:51:05;14.60;;;6.78;;
63120;SDS011;54478;48.684;20.114;2023-04-15T04:53:33;11.27;;;6.35;;
63120;SDS011;54478;48.684;20.114;2023-04-15T04:56:01;11.02;;;5.88;;
63120;SDS011;54478;48.684;20.114;2023-04-15T04:58:29;12.30;;;5.88;;
63120;SDS011;54478;48.684;20.114;2023-04-15T05:00:57;10.77;;;5.93;;
63120;SDS011;54478;48.684;20.114;2023-04-15T05:03:26;8.85;;;5.78;;
63120;SDS011;54478;48.684;20.114;2023-04-15T05:05:54;11.93;;;6.60;;
63120;SDS011;54478;48.684;20.114;2023-04-15T05:08:22;10.75;;;6.43;;
63120;SDS011;54478;48.684;20.114;2023-04-15T05:10:50;11.75;;;6.78;;
63120;SDS011;54478;48.684;20.114;2023-04-15T05:13:18;11.15;;;6.53;;
63120;SDS011;54478;48.684;20.114;2023-04-15T05:15:48;12.57;;;6.68;;
63120;SDS011;54478;48.684;20.114;2023-04-15T05:18:16;12.77;;;6.20;;
63120;SDS011;54478;48.684;20.114;2023-04-15T05:20:44;10.68;;;6.43;;
63120;SDS011;54478;48.684;20.114;2023-04-15T05:23:12;9.02;;;5.45;;
63120;SDS011;54478;48.684;20.114;2023-04-15T05:25:40;9.13;;;5.22;;
63120;SDS011;54478;48.684;20.114;2023-04-15T05:28:09;9.43;;;5.95;;
63120;SDS011;54478;48.684;20.114;2023-04-15T05:30:37;10.00;;;5.95;;
63120;SDS011;54478;48.684;20.114;2023-04-15T05:33:05;8.63;;;4.95;;
63120;SDS011;54478;48.684;20.114;2023-04-15T05:35:34;12.68;;;5.57;;
63120;SDS011;54478;48.684;20.114;2023-04-15T05:38:02;9.45;;;5.65;;
63120;SDS011;54478;48.684;20.114;2023-04-15T05:40:30;10.38;;;5.78;;
63120;SDS011;54478;48.684;20.114;2023-04-15T05:42:58;8.80;;;6.10;;
63120;SDS011;54478;48.684;20.114;2023-04-15T05:45:26;10.70;;;6.20;;
63120;SDS011;54478;48.684;20.114;2023-04-15T05:47:51;10.48;;;6.32;;
63120;SDS011;54478;48.684;20.114;2023-04-15T05:50:21;13.00;;;7.00;;
63120;SDS011;54478;48.684;20.114;2023-04-15T05:52:49;12.25;;;6.53;;
63120;SDS011;54478;48.684;20.114;2023-04-15T05:55:17;11.93;;;6.22;;
63120;SDS011;54478;48.684;20.114;2023-04-15T05:57:45;11.40;;;6.53;;
63120;SDS011;54478;48.684;20.114;2023-04-15T06:00:13;11.48;;;6.13;;
63120;SDS011;54478;48.684;20.114;2023-04-15T06:02:42;11.40;;;6.18;;
63120;SDS011;54478;48.684;20.114;2023-04-15T06:05:10;11.10;;;6.10;;
63120;SDS011;54478;48.684;20.114;2023-04-15T06:07:38;12.45;;;6.95;;
63120;SDS011;54478;48.684;20.114;2023-04-15T06:10:07;13.57;;;7.65;;
63120;SDS011;54478;48.684;20.114;2023-04-15T06:12:35;13.23;;;8.68;;
63120;SDS011;54478;48.684;20.114;2023-04-15T06:15:04;12.90;;;7.35;;
63120;SDS011;54478;48.684;20.114;2023-04-15T06:17:33;12.60;;;7.78;;
63120;SDS011;54478;48.684;20.114;2023-04-15T06:20:02;10.60;;;6.57;;
63120;SDS011;54478;48.684;20.114;2023-04-15T06:22:30;13.98;;;6.38;;
63120;SDS011;54478;48.684;20.114;2023-04-15T06:24:58;11.00;;;6.70;;
63120;SDS011;54478;48.684;20.114;2023-04-15T06:27:26;13.38;;;7.95;;
63120;SDS011;54478;48.684;20.114;2023-04-15T06:29:54;13.98;;;7.78;;
63120;SDS011;54478;48.684;20.114;2023-04-15T06:32:22;12.80;;;7.95;;
63120;SDS011;54478;48.684;20.114;2023-04-15T06:34:50;11.48;;;6.72;;
63120;SDS011;54478;48.684;20.114;2023-04-15T06:37:18;10.20;;;5.95;;
63120;SDS011;54478;48.684;20.114;2023-04-15T06:39:46;12.23;;;6.32;;
63120;SDS011;54478;48.684;20.114;2023-04-15T06:42:14;10.23;;;5.60;;
63120;SDS011;54478;48.684;20.114;2023-04-15T06:44:43;13.18;;;6.85;;
63120;SDS011;54478;48.684;20.114;2023-04-15T06:47:08;14.88;;;8.30;;
63120;SDS011;54478;48.684;20.114;2023-04-15T06:49:36;12.43;;;7.03;;
63120;SDS011;54478;48.684;20.114;2023-04-15T06:52:04;11.45;;;6.72;;
63120;SDS011;54478;48.684;20.114;2023-04-15T06:54:32;8.10;;;5.10;;
63120;SDS011;54478;48.684;20.114;2023-04-15T06:57:00;6.78;;;4.40;;
63120;SDS011;54478;48.684;20.114;2023-04-15T06:59:28;6.35;;;3.95;;
63120;SDS011;54478;48.684;20.114;2023-04-15T07:01:56;5.75;;;4.00;;
63120;SDS011;54478;48.684;20.114;2023-04-15T07:04:24;5.97;;;3.70;;
63120;SDS011;54478;48.684;20.114;2023-04-15T07:06:52;6.70;;;3.22;;
63120;SDS011;54478;48.684;20.114;2023-04-15T07:09:22;5.45;;;3.75;;
63120;SDS011;54478;48.684;20.114;2023-04-15T07:11:50;5.68;;;3.55;;
63120;SDS011;54478;48.684;20.114;2023-04-15T07:14:19;5.13;;;3.60;;
63120;SDS011;54478;48.684;20.114;2023-04-15T07:16:47;5.75;;;3.60;;
63120;SDS011;54478;48.684;20.114;2023-04-15T07:19:15;6.72;;;3.63;;
63120;SDS011;54478;48.684;20.114;2023-04-15T07:21:44;5.05;;;3.28;;
63120;SDS011;54478;48.684;20.114;2023-04-15T07:24:12;6.68;;;4.05;;
63120;SDS011;54478;48.684;20.114;2023-04-15T07:26:43;9.15;;;4.45;;
63120;SDS011;54478;48.684;20.114;2023-04-15T07:29:12;7.82;;;4.15;;
63120;SDS011;54478;48.684;20.114;2023-04-15T07:31:40;8.27;;;4.43;;
63120;SDS011;54478;48.684;20.114;2023-04-15T07:34:09;7.68;;;4.57;;
63120;SDS011;54478;48.684;20.114;2023-04-15T07:36:37;9.30;;;6.47;;
63120;SDS011;54478;48.684;20.114;2023-04-15T07:39:05;7.47;;;4.80;;
63120;SDS011;54478;48.684;20.114;2023-04-15T07:41:33;9.75;;;5.40;;
63120;SDS011;54478;48.684;20.114;2023-04-15T07:44:02;12.48;;;5.50;;
63120;SDS011;54478;48.684;20.114;2023-04-15T07:46:30;8.73;;;5.13;;
63120;SDS011;54478;48.684;20.114;2023-04-15T07:48:56;10.00;;;5.95;;
63120;SDS011;54478;48.684;20.114;2023-04-15T07:51:24;12.52;;;5.82;;
63120;SDS011;54478;48.684;20.114;2023-04-15T07:53:52;11.10;;;4.80;;
63120;SDS011;54478;48.684;20.114;2023-04-15T07:56:21;9.30;;;4.72;;
63120;SDS011;54478;48.684;20.114;2023-04-15T07:58:49;11.00;;;5.03;;
63120;SDS011;54478;48.684;20.114;2023-04-15T08:01:18;9.48;;;5.07;;
63120;SDS011;54478;48.684;20.114;2023-04-15T08:03:46;8.07;;;5.00;;
63120;SDS011;54478;48.684;20.114;2023-04-15T08:06:15;7.10;;;4.45;;
63120;SDS011;54478;48.684;20.114;2023-04-15T08:08:43;9.05;;;4.85;;
63120;SDS011;54478;48.684;20.114;2023-04-15T08:11:11;7.47;;;4.60;;
63120;SDS011;54478;48.684;20.114;2023-04-15T08:13:39;9.75;;;5.78;;
63120;SDS011;54478;48.684;20.114;2023-04-15T08:16:12;9.15;;;4.93;;
63120;SDS011;54478;48.684;20.114;2023-04-15T08:18:41;9.90;;;4.90;;
63120;SDS011;54478;48.684;20.114;2023-04-15T08:21:09;14.18;;;4.95;;
63120;SDS011;54478;48.684;20.114;2023-04-15T08:23:38;7.63;;;4.78;;
63120;SDS011;54478;48.684;20.114;2023-04-15T08:26:06;8.48;;;5.18;;
63120;SDS011;54478;48.684;20.114;2023-04-15T08:28:33;11.98;;;5.68;;
63120;SDS011;54478;48.684;20.114;2023-04-15T08:30:59;10.02;;;5.22;;
63120;SDS011;54478;48.684;20.114;2023-04-15T08:33:27;9.77;;;5.65;;
63120;SDS011;54478;48.684;20.114;2023-04-15T08:35:55;7.93;;;5.25;;
63120;SDS011;54478;48.684;20.114;2023-04-15T08:38:24;14.93;;;6.40;;
63120;SDS011;54478;48.684;20.114;2023-04-15T08:40:52;9.00;;;5.15;;
63120;SDS011;54478;48.684;20.114;2023-04-15T08:43:21;9.88;;;6.15;;
63120;SDS011;54478;48.684;20.114;2023-04-15T08:45:55;11.88;;;5.82;;
63120;SDS011;54478;48.684;20.114;2023-04-15T08:48:22;9.48;;;5.82;;
63120;SDS011;54478;48.684;20.114;2023-04-15T08:50:51;8.43;;;5.57;;
63120;SDS011;54478;48.684;20.114;2023-04-15T08:53:19;8.30;;;5.50;;
63120;SDS011;54478;48.684;20.114;2023-04-15T08:55:50;7.95;;;4.70;;
63120;SDS011;54478;48.684;20.114;2023-04-15T08:58:18;9.20;;;4.97;;
63120;SDS011;54478;48.684;20.114;2023-04-15T09:00:46;7.20;;;4.40;;
63120;SDS011;54478;48.684;20.114;2023-04-15T09:03:15;6.97;;;4.72;;
63120;SDS011;54478;48.684;20.114;2023-04-15T09:05:44;9.10;;;5.45;;
63120;SDS011;54478;48.684;20.114;2023-04-15T09:08:12;9.80;;;5.55;;
63120;SDS011;54478;48.684;20.114;2023-04-15T09:10:41;9.27;;;6.22;;
63120;SDS011;54478;48.684;20.114;2023-04-15T09:13:09;7.55;;;5.07;;
63120;SDS011;54478;48.684;20.114;2023-04-15T09:15:38;7.65;;;4.60;;
63120;SDS011;54478;48.684;20.114;2023-04-15T09:18:07;7.20;;;4.53;;
63120;SDS011;54478;48.684;20.114;2023-04-15T09:20:41;6.97;;;4.00;;
63120;SDS011;54478;48.684;20.114;2023-04-15T09:23:13;8.18;;;4.75;;
63120;SDS011;54478;48.684;20.114;2023-04-15T09:25:41;6.47;;;4.15;;
63120;SDS011;54478;48.684;20.114;2023-04-15T09:28:09;8.57;;;4.78;;
63120;SDS011;54478;48.684;20.114;2023-04-15T09:30:38;8.20;;;4.50;;
63120;SDS011;54478;48.684;20.114;2023-04-15T09:33:10;8.55;;;4.25;;
63120;SDS011;54478;48.684;20.114;2023-04-15T09:35:39;6.80;;;4.60;;
63120;SDS011;54478;48.684;20.114;2023-04-15T09:38:08;10.85;;;6.50;;
63120;SDS011;54478;48.684;20.114;2023-04-15T09:40:37;9.20;;;5.93;;
63120;SDS011;54478;48.684;20.114;2023-04-15T09:43:06;7.18;;;5.32;;
63120;SDS011;54478;48.684;20.114;2023-04-15T09:45:35;7.43;;;4.50;;
63120;SDS011;54478;48.684;20.114;2023-04-15T09:48:20;7.22;;;4.55;;
63120;SDS011;54478;48.684;20.114;2023-04-15T09:50:46;7.18;;;4.38;;
63120;SDS011;54478;48.684;20.114;2023-04-15T09:53:16;8.82;;;6.00;;
63120;SDS011;54478;48.684;20.114;2023-04-15T09:55:49;9.07;;;6.10;;
63120;SDS011;54478;48.684;20.114;2023-04-15T09:58:33;11.23;;;7.25;;
63120;SDS011;54478;48.684;20.114;2023-04-15T10:01:01;8.32;;;5.68;;
63120;SDS011;54478;48.684;20.114;2023-04-15T10:03:30;9.43;;;6.15;;
63120;SDS011;54478;48.684;20.114;2023-04-15T10:05:59;8.68;;;5.60;;
63120;SDS011;54478;48.684;20.114;2023-04-15T10:08:28;9.38;;;5.40;;
63120;SDS011;54478;48.684;20.114;2023-04-15T10:10:57;8.18;;;5.25;;
63120;SDS011;54478;48.684;20.114;2023-04-15T10:13:27;8.43;;;6.00;;
63120;SDS011;54478;48.684;20.114;2023-04-15T10:15:57;8.75;;;6.35;;
63120;SDS011;54478;48.684;20.114;2023-04-15T10:18:26;9.25;;;5.38;;
63120;SDS011;54478;48.684;20.114;2023-04-15T10:20:55;9.93;;;6.15;;
63120;SDS011;54478;48.684;20.114;2023-04-15T10:23:23;7.32;;;4.72;;
63120;SDS011;54478;48.684;20.114;2023-04-15T10:25:52;5.97;;;4.05;;
63120;SDS011;54478;48.684;20.114;2023-04-15T10:28:24;6.00;;;3.00;;
63120;SDS011;54478;48.684;20.114;2023-04-15T10:30:53;6.45;;;3.08;;
63120;SDS011;54478;48.684;20.114;2023-04-15T10:33:22;5.03;;;2.67;;
63120;SDS011;54478;48.684;20.114;2023-04-15T10:35:50;3.35;;;2.60;;
63120;SDS011;54478;48.684;20.114;2023-04-15T10:43:48;3.67;;;2.50;;
63120;SDS011;54478;48.684;20.114;2023-04-15T10:46:17;4.85;;;2.70;;
63120;SDS011;54478;48.684;20.114;2023-04-15T10:48:49;5.72;;;5.07;;
63120;SDS011;54478;48.684;20.114;2023-04-15T10:51:16;1.90;;;1.70;;
63120;SDS011;54478;48.684;20.114;2023-04-15T10:53:44;3.17;;;2.30;;
63120;SDS011;54478;48.684;20.114;2023-04-15T10:56:12;2.53;;;2.08;;
63120;SDS011;54478;48.684;20.114;2023-04-15T10:58:41;2.88;;;2.13;;
63120;SDS011;54478;48.684;20.114;2023-04-15T11:01:09;3.45;;;2.40;;
63120;SDS011;54478;48.684;20.114;2023-04-15T11:03:38;3.05;;;2.20;;
63120;SDS011;54478;48.684;20.114;2023-04-15T11:06:06;4.00;;;2.05;;
63120;SDS011;54478;48.684;20.114;2023-04-15T11:11:16;3.47;;;2.20;;
63120;SDS011;54478;48.684;20.114;2023-04-15T11:13:48;3.55;;;2.35;;
63120;SDS011;54478;48.684;20.114;2023-04-15T11:16:16;4.10;;;2.65;;
63120;SDS011;54478;48.684;20.114;2023-04-15T11:18:53;8.32;;;4.35;;
63120;SDS011;54478;48.684;20.114;2023-04-15T11:21:21;6.53;;;3.90;;
63120;SDS011;54478;48.684;20.114;2023-04-15T11:23:51;3.70;;;2.63;;
63120;SDS011;54478;48.684;20.114;2023-04-15T11:26:19;4.47;;;2.70;;
63120;SDS011;54478;48.684;20.114;2023-04-15T11:28:52;4.88;;;3.05;;
63120;SDS011;54478;48.684;20.114;2023-04-15T11:31:21;4.35;;;2.63;;
63120;SDS011;54478;48.684;20.114;2023-04-15T11:36:25;3.30;;;2.33;;
63120;SDS011;54478;48.684;20.114;2023-04-15T11:38:57;5.60;;;3.42;;
63120;SDS011;54478;48.684;20.114;2023-04-15T11:41:23;3.90;;;3.08;;
63120;SDS011;54478;48.684;20.114;2023-04-15T11:43:51;4.10;;;2.95;;
63120;SDS011;54478;48.684;20.114;2023-04-15T11:46:19;4.57;;;2.88;;
63120;SDS011;54478;48.684;20.114;2023-04-15T11:48:45;3.20;;;2.50;;
63120;SDS011;54478;48.684;20.114;2023-04-15T11:51:14;3.38;;;2.40;;
63120;SDS011;54478;48.684;20.114;2023-04-15T11:53:43;3.53;;;2.70;;
63120;SDS011;54478;48.684;20.114;2023-04-15T11:56:18;3.58;;;2.53;;
63120;SDS011;54478;48.684;20.114;2023-04-15T11:58:48;6.05;;;3.50;;
63120;SDS011;54478;48.684;20.114;2023-04-15T12:01:16;4.32;;;3.08;;
63120;SDS011;54478;48.684;20.114;2023-04-15T12:03:45;5.18;;;2.38;;
63120;SDS011;54478;48.684;20.114;2023-04-15T12:11:15;2.65;;;1.67;;
63120;SDS011;54478;48.684;20.114;2023-04-15T12:13:44;2.40;;;1.60;;
63120;SDS011;54478;48.684;20.114;2023-04-15T12:16:17;2.15;;;1.02;;
63120;SDS011;54478;48.684;20.114;2023-04-15T12:18:46;2.10;;;1.17;;
63120;SDS011;54478;48.684;20.114;2023-04-15T12:21:15;2.17;;;1.38;;
63120;SDS011;54478;48.684;20.114;2023-04-15T12:23:49;2.17;;;1.40;;
63120;SDS011;54478;48.684;20.114;2023-04-15T12:26:18;2.45;;;1.30;;
63120;SDS011;54478;48.684;20.114;2023-04-15T12:28:53;3.33;;;2.10;;
63120;SDS011;54478;48.684;20.114;2023-04-15T12:31:19;2.55;;;1.67;;
63120;SDS011;54478;48.684;20.114;2023-04-15T12:33:47;2.13;;;1.52;;
63120;SDS011;54478;48.684;20.114;2023-04-15T12:36:15;3.30;;;1.90;;
63120;SDS011;54478;48.684;20.114;2023-04-15T12:38:44;3.90;;;2.35;;
63120;SDS011;54478;48.684;20.114;2023-04-15T12:41:12;6.18;;;2.78;;
63120;SDS011;54478;48.684;20.114;2023-04-15T12:43:40;7.65;;;3.90;;
63120;SDS011;54478;48.684;20.114;2023-04-15T12:46:09;8.02;;;4.15;;
63120;SDS011;54478;48.684;20.114;2023-04-15T12:48:34;7.07;;;4.25;;
63120;SDS011;54478;48.684;20.114;2023-04-15T12:51:02;5.43;;;3.30;;
63120;SDS011;54478;48.684;20.114;2023-04-15T12:53:30;5.30;;;3.13;;
63120;SDS011;54478;48.684;20.114;2023-04-15T12:55:59;8.95;;;5.13;;
63120;SDS011;54478;48.684;20.114;2023-04-15T12:58:27;7.72;;;4.00;;
63120;SDS011;54478;48.684;20.114;2023-04-15T13:00:55;5.65;;;2.45;;
63120;SDS011;54478;48.684;20.114;2023-04-15T13:03:24;6.03;;;3.83;;
63120;SDS011;54478;48.684;20.114;2023-04-15T13:05:52;5.60;;;3.13;;
63120;SDS011;54478;48.684;20.114;2023-04-15T13:08:20;6.30;;;2.55;;
63120;SDS011;54478;48.684;20.114;2023-04-15T13:10:48;8.88;;;3.10;;
63120;SDS011;54478;48.684;20.114;2023-04-15T13:13:16;1.60;;;1.42;;
63120;SDS011;54478;48.684;20.114;2023-04-15T13:15:44;1.75;;;1.50;;
63120;SDS011;54478;48.684;20.114;2023-04-15T13:18:12;1.80;;;1.48;;
63120;SDS011;54478;48.684;20.114;2023-04-15T13:20:40;1.67;;;1.30;;
63120;SDS011;54478;48.684;20.114;2023-04-15T13:23:09;1.77;;;1.42;;
63120;SDS011;54478;48.684;20.114;2023-04-15T13:25:37;2.67;;;1.63;;
63120;SDS011;54478;48.684;20.114;2023-04-15T13:28:05;1.80;;;1.45;;
63120;SDS011;54478;48.684;20.114;2023-04-15T13:30:33;1.40;;;1.23;;
63120;SDS011;54478;48.684;20.114;2023-04-15T13:33:01;1.92;;;1.30;;
63120;SDS011;54478;48.684;20.114;2023-04-15T13:35:31;3.38;;;1.80;;
63120;SDS011;54478;48.684;20.114;2023-04-15T13:37:59;2.08;;;1.20;;
63120;SDS011;54478;48.684;20.114;2023-04-15T13:40:27;4.28;;;2.80;;
63120;SDS011;54478;48.684;20.114;2023-04-15T13:42:55;1.55;;;1.38;;
63120;SDS011;54478;48.684;20.114;2023-04-15T13:45:25;1.35;;;1.25;;
63120;SDS011;54478;48.684;20.114;2023-04-15T13:47:50;1.70;;;1.50;;
63120;SDS011;54478;48.684;20.114;2023-04-15T13:50:19;3.13;;;1.90;;
63120;SDS011;54478;48.684;20.114;2023-04-15T13:52:47;1.60;;;1.45;;
63120;SDS011;54478;48.684;20.114;2023-04-15T13:55:15;1.30;;;1.20;;
63120;SDS011;54478;48.684;20.114;2023-04-15T13:57:43;1.35;;;1.20;;
63120;SDS011;54478;48.684;20.114;2023-04-15T14:00:12;1.58;;;1.15;;
63120;SDS011;54478;48.684;20.114;2023-04-15T14:02:41;1.60;;;1.33;;
63120;SDS011;54478;48.684;20.114;2023-04-15T14:05:09;1.48;;;1.27;;
63120;SDS011;54478;48.684;20.114;2023-04-15T14:07:38;1.67;;;1.45;;
63120;SDS011;54478;48.684;20.114;2023-04-15T14:10:06;2.92;;;2.10;;
63120;SDS011;54478;48.684;20.114;2023-04-15T14:12:34;3.28;;;1.50;;
63120;SDS011;54478;48.684;20.114;2023-04-15T14:15:03;3.83;;;2.65;;
63120;SDS011;54478;48.684;20.114;2023-04-15T14:17:32;5.25;;;2.83;;
63120;SDS011;54478;48.684;20.114;2023-04-15T14:20:00;1.85;;;1.40;;
63120;SDS011;54478;48.684;20.114;2023-04-15T14:22:28;3.67;;;1.67;;
63120;SDS011;54478;48.684;20.114;2023-04-15T14:24:56;1.25;;;1.10;;
63120;SDS011;54478;48.684;20.114;2023-04-15T14:27:25;1.42;;;1.20;;
63120;SDS011;54478;48.684;20.114;2023-04-15T14:29:54;1.58;;;1.20;;
63120;SDS011;54478;48.684;20.114;2023-04-15T14:32:23;3.45;;;1.63;;
63120;SDS011;54478;48.684;20.114;2023-04-15T14:34:51;2.50;;;1.70;;
63120;SDS011;54478;48.684;20.114;2023-04-15T14:37:19;2.47;;;1.33;;
63120;SDS011;54478;48.684;20.114;2023-04-15T14:39:47;1.50;;;1.08;;
63120;SDS011;54478;48.684;20.114;2023-04-15T14:42:15;3.22;;;2.10;;
63120;SDS011;54478;48.684;20.114;2023-04-15T14:44:43;1.92;;;1.38;;
63120;SDS011;54478;48.684;20.114;2023-04-15T14:47:09;1.27;;;0.80;;
63120;SDS011;54478;48.684;20.114;2023-04-15T14:49:37;2.20;;;1.20;;
63120;SDS011;54478;48.684;20.114;2023-04-15T14:52:05;1.38;;;1.10;;
63120;SDS011;54478;48.684;20.114;2023-04-15T14:54:33;2.47;;;1.10;;